sensor_id;sensor_type;location;lat;lon;timestamp;P1;durP1;ratioP1;P2;durP2;ratioP2
46322;SDS011;32044;52.386;13.278;2023-06-14T00:02:00;5.38;;;3.00;;
46322;SDS011;32044;52.386;13.278;2023-06-14T00:04:28;3.97;;;2.80;;
46322;SDS011;32044;52.386;13.278;2023-06-14T00:06:55;5.03;;;2.65;;
46322;SDS011;32044;52.386;13.278;2023-06-14T00:09:23;4.72;;;2.80;;
46322;SDS011;32044;52.386;13.278;2023-06-14T00:11:51;8.75;;;2.85;;
46322;SDS011;32044;52.386;13.278;2023-06-14T00:14:20;3.80;;;2.67;;
46322;SDS011;32044;52.386;13.278;2023-06-14T00:16:47;5.78;;;2.88;;
46322;SDS011;32044;52.386;13.278;2023-06-14T00:19:15;3.78;;;2.70;;
46322;SDS011;32044;52.386;13.278;2023-06-14T00:21:42;4.10;;;2.97;;
46322;SDS011;32044;52.386;13.278;2023-06-14T00:24:10;3.85;;;3.10;;
46322;SDS011;32044;52.386;13.278;2023-06-14T00:26:38;6.22;;;2.97;;
46322;SDS011;32044;52.386;13.278;2023-06-14T00:29:05;4.07;;;2.72;;
46322;SDS011;32044;52.386;13.278;2023-06-14T00:31:34;4.25;;;3.30;;
46322;SDS011;32044;52.386;13.278;2023-06-14T00:34:02;6.88;;;3.58;;
46322;SDS011;32044;52.386;13.278;2023-06-14T00:36:30;3.88;;;2.70;;
46322;SDS011;32044;52.386;13.278;2023-06-14T00:38:57;4.68;;;3.00;;
46322;SDS011;32044;52.386;13.278;2023-06-14T00:41:25;4.55;;;2.78;;
46322;SDS011;32044;52.386;13.278;2023-06-14T00:43:53;6.22;;;3.00;;
46322;SDS011;32044;52.386;13.278;2023-06-14T00:46:22;7.50;;;2.78;;
46322;SDS011;32044;52.386;13.278;2023-06-14T00:48:52;5.80;;;2.67;;
46322;SDS011;32044;52.386;13.278;2023-06-14T00:51:19;5.65;;;3.10;;
46322;SDS011;32044;52.386;13.278;2023-06-14T00:53:47;4.70;;;2.83;;
46322;SDS011;32044;52.386;13.278;2023-06-14T00:56:15;4.63;;;3.10;;
46322;SDS011;32044;52.386;13.278;2023-06-14T00:58:43;6.80;;;2.90;;
46322;SDS011;32044;52.386;13.278;2023-06-14T01:01:10;10.43;;;3.80;;
46322;SDS011;32044;52.386;13.278;2023-06-14T01:03:38;4.60;;;3.10;;
46322;SDS011;32044;52.386;13.278;2023-06-14T01:06:11;6.65;;;3.70;;
46322;SDS011;32044;52.386;13.278;2023-06-14T01:08:56;4.25;;;3.38;;
46322;SDS011;32044;52.386;13.278;2023-06-14T01:11:31;4.20;;;3.13;;
46322;SDS011;32044;52.386;13.278;2023-06-14T01:14:01;6.28;;;3.70;;
46322;SDS011;32044;52.386;13.278;2023-06-14T01:16:29;5.60;;;3.70;;
46322;SDS011;32044;52.386;13.278;2023-06-14T01:18:58;6.80;;;3.42;;
46322;SDS011;32044;52.386;13.278;2023-06-14T01:21:29;4.35;;;3.45;;
46322;SDS011;32044;52.386;13.278;2023-06-14T01:24:01;4.57;;;3.60;;
46322;SDS011;32044;52.386;13.278;2023-06-14T01:26:29;5.65;;;4.20;;
46322;SDS011;32044;52.386;13.278;2023-06-14T01:28:57;5.65;;;3.85;;
46322;SDS011;32044;52.386;13.278;2023-06-14T01:31:25;4.78;;;3.67;;
46322;SDS011;32044;52.386;13.278;2023-06-14T01:33:53;6.43;;;3.83;;
46322;SDS011;32044;52.386;13.278;2023-06-14T01:36:21;7.13;;;3.83;;
46322;SDS011;32044;52.386;13.278;2023-06-14T01:38:49;6.05;;;4.10;;
46322;SDS011;32044;52.386;13.278;2023-06-14T01:41:19;4.53;;;4.03;;
46322;SDS011;32044;52.386;13.278;2023-06-14T01:43:48;4.68;;;4.15;;
46322;SDS011;32044;52.386;13.278;2023-06-14T01:46:16;9.85;;;4.35;;
46322;SDS011;32044;52.386;13.278;2023-06-14T01:48:43;4.95;;;3.85;;
46322;SDS011;32044;52.386;13.278;2023-06-14T01:51:11;4.93;;;3.95;;
46322;SDS011;32044;52.386;13.278;2023-06-14T01:53:38;7.38;;;4.90;;
46322;SDS011;32044;52.386;13.278;2023-06-14T01:56:06;5.43;;;3.97;;
46322;SDS011;32044;52.386;13.278;2023-06-14T01:58:35;7.47;;;3.65;;
46322;SDS011;32044;52.386;13.278;2023-06-14T02:01:03;5.90;;;4.22;;
46322;SDS011;32044;52.386;13.278;2023-06-14T02:03:31;6.85;;;3.88;;
46322;SDS011;32044;52.386;13.278;2023-06-14T02:06:00;7.35;;;3.80;;
46322;SDS011;32044;52.386;13.278;2023-06-14T02:08:28;7.60;;;4.15;;
46322;SDS011;32044;52.386;13.278;2023-06-14T02:10:56;6.55;;;3.88;;
46322;SDS011;32044;52.386;13.278;2023-06-14T02:13:23;6.97;;;3.80;;
46322;SDS011;32044;52.386;13.278;2023-06-14T02:15:52;6.35;;;3.78;;
46322;SDS011;32044;52.386;13.278;2023-06-14T02:18:21;5.15;;;3.95;;
46322;SDS011;32044;52.386;13.278;2023-06-14T02:20:48;8.40;;;4.25;;
46322;SDS011;32044;52.386;13.278;2023-06-14T02:23:16;9.27;;;4.50;;
46322;SDS011;32044;52.386;13.278;2023-06-14T02:25:44;5.00;;;4.03;;
46322;SDS011;32044;52.386;13.278;2023-06-14T02:28:12;5.90;;;4.38;;
46322;SDS011;32044;52.386;13.278;2023-06-14T02:30:40;6.13;;;4.43;;
46322;SDS011;32044;52.386;13.278;2023-06-14T02:33:09;6.60;;;4.57;;
46322;SDS011;32044;52.386;13.278;2023-06-14T02:35:38;4.63;;;2.83;;
46322;SDS011;32044;52.386;13.278;2023-06-14T02:38:07;8.65;;;5.57;;
46322;SDS011;32044;52.386;13.278;2023-06-14T02:40:35;6.65;;;5.28;;
46322;SDS011;32044;52.386;13.278;2023-06-14T02:43:03;7.93;;;5.25;;
46322;SDS011;32044;52.386;13.278;2023-06-14T02:45:30;5.45;;;4.78;;
46322;SDS011;32044;52.386;13.278;2023-06-14T02:47:57;7.53;;;4.72;;
46322;SDS011;32044;52.386;13.278;2023-06-14T02:50:27;9.75;;;4.90;;
46322;SDS011;32044;52.386;13.278;2023-06-14T02:52:56;8.15;;;5.80;;
46322;SDS011;32044;52.386;13.278;2023-06-14T02:55:24;7.55;;;5.30;;
46322;SDS011;32044;52.386;13.278;2023-06-14T02:57:52;8.40;;;5.15;;
46322;SDS011;32044;52.386;13.278;2023-06-14T03:00:20;9.05;;;5.97;;
46322;SDS011;32044;52.386;13.278;2023-06-14T03:02:47;7.82;;;5.72;;
46322;SDS011;32044;52.386;13.278;2023-06-14T03:05:17;6.93;;;5.50;;
46322;SDS011;32044;52.386;13.278;2023-06-14T03:07:48;7.88;;;5.93;;
46322;SDS011;32044;52.386;13.278;2023-06-14T03:10:16;9.48;;;5.82;;
46322;SDS011;32044;52.386;13.278;2023-06-14T03:12:44;10.43;;;5.60;;
46322;SDS011;32044;52.386;13.278;2023-06-14T03:15:12;10.00;;;5.90;;
46322;SDS011;32044;52.386;13.278;2023-06-14T03:17:40;8.18;;;6.55;;
46322;SDS011;32044;52.386;13.278;2023-06-14T03:20:12;9.20;;;6.53;;
46322;SDS011;32044;52.386;13.278;2023-06-14T03:22:40;11.43;;;5.75;;
46322;SDS011;32044;52.386;13.278;2023-06-14T03:25:09;8.88;;;5.40;;
46322;SDS011;32044;52.386;13.278;2023-06-14T03:27:36;7.65;;;5.72;;
46322;SDS011;32044;52.386;13.278;2023-06-14T03:30:04;8.30;;;6.05;;
46322;SDS011;32044;52.386;13.278;2023-06-14T03:32:34;7.03;;;5.68;;
46322;SDS011;32044;52.386;13.278;2023-06-14T03:35:01;10.30;;;6.43;;
46322;SDS011;32044;52.386;13.278;2023-06-14T03:37:29;9.13;;;6.05;;
46322;SDS011;32044;52.386;13.278;2023-06-14T03:39:57;11.85;;;6.00;;
46322;SDS011;32044;52.386;13.278;2023-06-14T03:42:25;9.02;;;5.93;;
46322;SDS011;32044;52.386;13.278;2023-06-14T03:44:53;7.85;;;5.68;;
46322;SDS011;32044;52.386;13.278;2023-06-14T03:47:21;7.93;;;6.43;;
46322;SDS011;32044;52.386;13.278;2023-06-14T03:49:49;8.13;;;5.80;;
46322;SDS011;32044;52.386;13.278;2023-06-14T03:52:16;7.18;;;5.32;;
46322;SDS011;32044;52.386;13.278;2023-06-14T03:54:44;10.10;;;5.72;;
46322;SDS011;32044;52.386;13.278;2023-06-14T03:57:15;9.48;;;5.65;;
46322;SDS011;32044;52.386;13.278;2023-06-14T03:59:44;8.40;;;5.95;;
46322;SDS011;32044;52.386;13.278;2023-06-14T04:02:11;6.50;;;5.47;;
46322;SDS011;32044;52.386;13.278;2023-06-14T04:04:41;11.15;;;5.93;;
46322;SDS011;32044;52.386;13.278;2023-06-14T04:07:10;10.43;;;7.07;;
46322;SDS011;32044;52.386;13.278;2023-06-14T04:09:37;11.50;;;6.95;;
46322;SDS011;32044;52.386;13.278;2023-06-14T04:12:06;8.82;;;7.18;;
46322;SDS011;32044;52.386;13.278;2023-06-14T04:14:34;9.15;;;6.25;;
46322;SDS011;32044;52.386;13.278;2023-06-14T04:17:04;9.75;;;6.18;;
46322;SDS011;32044;52.386;13.278;2023-06-14T04:19:32;8.73;;;6.63;;
46322;SDS011;32044;52.386;13.278;2023-06-14T04:22:00;8.70;;;6.40;;
46322;SDS011;32044;52.386;13.278;2023-06-14T04:24:28;8.55;;;6.45;;
46322;SDS011;32044;52.386;13.278;2023-06-14T04:26:58;9.38;;;7.32;;
46322;SDS011;32044;52.386;13.278;2023-06-14T04:29:27;11.02;;;7.18;;
46322;SDS011;32044;52.386;13.278;2023-06-14T04:31:55;10.90;;;7.07;;
46322;SDS011;32044;52.386;13.278;2023-06-14T04:34:27;9.00;;;7.07;;
46322;SDS011;32044;52.386;13.278;2023-06-14T04:36:55;8.60;;;6.55;;
46322;SDS011;32044;52.386;13.278;2023-06-14T04:39:24;9.73;;;7.07;;
46322;SDS011;32044;52.386;13.278;2023-06-14T04:41:53;8.43;;;6.63;;
46322;SDS011;32044;52.386;13.278;2023-06-14T04:44:23;8.82;;;6.68;;
46322;SDS011;32044;52.386;13.278;2023-06-14T04:46:56;10.38;;;6.88;;
46322;SDS011;32044;52.386;13.278;2023-06-14T04:49:24;8.68;;;6.35;;
46322;SDS011;32044;52.386;13.278;2023-06-14T04:51:53;11.40;;;7.30;;
46322;SDS011;32044;52.386;13.278;2023-06-14T04:54:23;8.93;;;6.55;;
46322;SDS011;32044;52.386;13.278;2023-06-14T04:56:51;8.57;;;6.10;;
46322;SDS011;32044;52.386;13.278;2023-06-14T04:59:21;10.75;;;5.95;;
46322;SDS011;32044;52.386;13.278;2023-06-14T05:01:50;9.60;;;6.18;;
46322;SDS011;32044;52.386;13.278;2023-06-14T05:04:19;14.00;;;7.10;;
46322;SDS011;32044;52.386;13.278;2023-06-14T05:06:49;9.73;;;7.07;;
46322;SDS011;32044;52.386;13.278;2023-06-14T05:09:16;7.15;;;6.32;;
46322;SDS011;32044;52.386;13.278;2023-06-14T05:11:44;9.38;;;6.68;;
46322;SDS011;32044;52.386;13.278;2023-06-14T05:14:12;9.68;;;7.28;;
46322;SDS011;32044;52.386;13.278;2023-06-14T05:16:39;9.00;;;6.88;;
46322;SDS011;32044;52.386;13.278;2023-06-14T05:19:07;8.95;;;7.22;;
46322;SDS011;32044;52.386;13.278;2023-06-14T05:21:34;8.15;;;6.63;;
46322;SDS011;32044;52.386;13.278;2023-06-14T05:24:10;11.30;;;7.38;;
46322;SDS011;32044;52.386;13.278;2023-06-14T05:26:37;13.35;;;7.03;;
46322;SDS011;32044;52.386;13.278;2023-06-14T05:29:05;7.57;;;6.88;;
46322;SDS011;32044;52.386;13.278;2023-06-14T05:31:33;9.45;;;7.25;;
46322;SDS011;32044;52.386;13.278;2023-06-14T05:34:00;8.13;;;6.85;;
46322;SDS011;32044;52.386;13.278;2023-06-14T05:36:28;9.77;;;6.45;;
46322;SDS011;32044;52.386;13.278;2023-06-14T05:38:56;8.75;;;6.10;;
46322;SDS011;32044;52.386;13.278;2023-06-14T05:41:27;9.02;;;5.90;;
46322;SDS011;32044;52.386;13.278;2023-06-14T05:43:55;8.75;;;6.40;;
46322;SDS011;32044;52.386;13.278;2023-06-14T05:46:23;7.82;;;5.97;;
46322;SDS011;32044;52.386;13.278;2023-06-14T05:48:52;8.25;;;6.22;;
46322;SDS011;32044;52.386;13.278;2023-06-14T05:51:20;7.20;;;5.57;;
46322;SDS011;32044;52.386;13.278;2023-06-14T05:53:48;8.98;;;5.95;;
46322;SDS011;32044;52.386;13.278;2023-06-14T05:56:16;9.35;;;6.07;;
46322;SDS011;32044;52.386;13.278;2023-06-14T05:58:46;6.85;;;5.38;;
46322;SDS011;32044;52.386;13.278;2023-06-14T06:01:14;6.95;;;5.05;;
46322;SDS011;32044;52.386;13.278;2023-06-14T06:03:41;9.15;;;5.90;;
46322;SDS011;32044;52.386;13.278;2023-06-14T06:06:12;8.35;;;5.55;;
46322;SDS011;32044;52.386;13.278;2023-06-14T06:08:40;10.60;;;5.78;;
46322;SDS011;32044;52.386;13.278;2023-06-14T06:11:08;10.93;;;7.10;;
46322;SDS011;32044;52.386;13.278;2023-06-14T06:13:36;7.68;;;5.72;;
46322;SDS011;32044;52.386;13.278;2023-06-14T06:16:06;8.23;;;6.88;;
46322;SDS011;32044;52.386;13.278;2023-06-14T06:18:34;9.07;;;5.65;;
46322;SDS011;32044;52.386;13.278;2023-06-14T06:21:03;10.15;;;6.28;;
46322;SDS011;32044;52.386;13.278;2023-06-14T06:23:31;7.05;;;6.07;;
46322;SDS011;32044;52.386;13.278;2023-06-14T06:25:59;8.25;;;5.72;;
46322;SDS011;32044;52.386;13.278;2023-06-14T06:28:26;6.07;;;5.05;;
46322;SDS011;32044;52.386;13.278;2023-06-14T06:30:54;9.50;;;5.82;;
46322;SDS011;32044;52.386;13.278;2023-06-14T06:33:23;7.65;;;5.43;;
46322;SDS011;32044;52.386;13.278;2023-06-14T06:35:51;12.73;;;5.68;;
46322;SDS011;32044;52.386;13.278;2023-06-14T06:38:18;7.05;;;5.13;;
46322;SDS011;32044;52.386;13.278;2023-06-14T06:40:46;9.63;;;5.45;;
46322;SDS011;32044;52.386;13.278;2023-06-14T06:43:13;8.60;;;5.50;;
46322;SDS011;32044;52.386;13.278;2023-06-14T06:45:43;9.32;;;6.60;;
46322;SDS011;32044;52.386;13.278;2023-06-14T06:48:10;8.00;;;4.90;;
46322;SDS011;32044;52.386;13.278;2023-06-14T06:50:39;7.85;;;5.72;;
46322;SDS011;32044;52.386;13.278;2023-06-14T06:53:07;6.43;;;4.75;;
46322;SDS011;32044;52.386;13.278;2023-06-14T06:55:34;8.30;;;5.22;;
46322;SDS011;32044;52.386;13.278;2023-06-14T06:58:02;8.82;;;6.68;;
46322;SDS011;32044;52.386;13.278;2023-06-14T07:00:31;9.43;;;6.65;;
46322;SDS011;32044;52.386;13.278;2023-06-14T07:02:58;11.98;;;7.35;;
46322;SDS011;32044;52.386;13.278;2023-06-14T07:05:26;11.73;;;7.43;;
46322;SDS011;32044;52.386;13.278;2023-06-14T07:07:55;12.57;;;6.45;;
46322;SDS011;32044;52.386;13.278;2023-06-14T07:10:23;9.38;;;6.57;;
46322;SDS011;32044;52.386;13.278;2023-06-14T07:12:51;7.85;;;5.90;;
46322;SDS011;32044;52.386;13.278;2023-06-14T07:15:19;11.95;;;7.55;;
46322;SDS011;32044;52.386;13.278;2023-06-14T07:17:47;9.40;;;6.25;;
46322;SDS011;32044;52.386;13.278;2023-06-14T07:20:14;10.13;;;5.82;;
46322;SDS011;32044;52.386;13.278;2023-06-14T07:22:42;12.60;;;6.30;;
46322;SDS011;32044;52.386;13.278;2023-06-14T07:25:12;9.88;;;5.75;;
46322;SDS011;32044;52.386;13.278;2023-06-14T07:27:41;8.52;;;5.53;;
46322;SDS011;32044;52.386;13.278;2023-06-14T07:30:10;13.38;;;6.00;;
46322;SDS011;32044;52.386;13.278;2023-06-14T07:32:38;9.98;;;5.75;;
46322;SDS011;32044;52.386;13.278;2023-06-14T07:35:06;7.05;;;6.13;;
46322;SDS011;32044;52.386;13.278;2023-06-14T07:37:34;15.95;;;6.00;;
46322;SDS011;32044;52.386;13.278;2023-06-14T07:40:02;29.35;;;6.75;;
46322;SDS011;32044;52.386;13.278;2023-06-14T07:42:35;11.13;;;6.10;;
46322;SDS011;32044;52.386;13.278;2023-06-14T07:45:03;9.80;;;5.75;;
46322;SDS011;32044;52.386;13.278;2023-06-14T07:47:32;8.45;;;6.15;;
46322;SDS011;32044;52.386;13.278;2023-06-14T07:50:00;17.15;;;5.03;;
46322;SDS011;32044;52.386;13.278;2023-06-14T07:52:27;12.13;;;5.72;;
46322;SDS011;32044;52.386;13.278;2023-06-14T07:54:55;8.68;;;6.03;;
46322;SDS011;32044;52.386;13.278;2023-06-14T07:57:23;5.82;;;4.38;;
46322;SDS011;32044;52.386;13.278;2023-06-14T07:59:51;7.30;;;5.38;;
46322;SDS011;32044;52.386;13.278;2023-06-14T08:02:19;8.88;;;5.38;;
46322;SDS011;32044;52.386;13.278;2023-06-14T08:04:47;5.53;;;4.65;;
46322;SDS011;32044;52.386;13.278;2023-06-14T08:07:14;9.65;;;5.43;;
46322;SDS011;32044;52.386;13.278;2023-06-14T08:09:42;9.02;;;4.85;;
46322;SDS011;32044;52.386;13.278;2023-06-14T08:12:10;8.23;;;5.20;;
46322;SDS011;32044;52.386;13.278;2023-06-14T08:14:38;6.63;;;4.90;;
46322;SDS011;32044;52.386;13.278;2023-06-14T08:17:07;10.50;;;4.93;;
46322;SDS011;32044;52.386;13.278;2023-06-14T08:19:35;8.90;;;5.00;;
46322;SDS011;32044;52.386;13.278;2023-06-14T08:22:03;7.72;;;5.05;;
46322;SDS011;32044;52.386;13.278;2023-06-14T08:24:31;22.63;;;5.65;;
46322;SDS011;32044;52.386;13.278;2023-06-14T08:26:58;8.23;;;5.05;;
46322;SDS011;32044;52.386;13.278;2023-06-14T08:29:27;12.20;;;5.13;;
46322;SDS011;32044;52.386;13.278;2023-06-14T08:31:57;14.20;;;4.63;;
46322;SDS011;32044;52.386;13.278;2023-06-14T08:34:26;39.28;;;7.10;;
46322;SDS011;32044;52.386;13.278;2023-06-14T08:36:53;8.70;;;4.57;;
46322;SDS011;32044;52.386;13.278;2023-06-14T08:39:21;11.80;;;5.30;;
46322;SDS011;32044;52.386;13.278;2023-06-14T08:41:48;5.70;;;4.03;;
46322;SDS011;32044;52.386;13.278;2023-06-14T08:44:17;7.60;;;4.60;;
46322;SDS011;32044;52.386;13.278;2023-06-14T08:46:45;5.78;;;3.88;;
46322;SDS011;32044;52.386;13.278;2023-06-14T08:49:16;10.45;;;3.95;;
46322;SDS011;32044;52.386;13.278;2023-06-14T08:51:45;11.57;;;4.38;;
46322;SDS011;32044;52.386;13.278;2023-06-14T08:54:13;13.82;;;5.18;;
46322;SDS011;32044;52.386;13.278;2023-06-14T08:56:41;12.27;;;4.20;;
46322;SDS011;32044;52.386;13.278;2023-06-14T08:59:10;12.93;;;4.75;;
46322;SDS011;32044;52.386;13.278;2023-06-14T09:01:38;10.55;;;4.65;;
46322;SDS011;32044;52.386;13.278;2023-06-14T09:04:14;8.90;;;3.47;;
46322;SDS011;32044;52.386;13.278;2023-06-14T09:06:42;5.40;;;4.30;;
46322;SDS011;32044;52.386;13.278;2023-06-14T09:09:12;7.53;;;4.55;;
46322;SDS011;32044;52.386;13.278;2023-06-14T09:11:41;12.82;;;4.30;;
46322;SDS011;32044;52.386;13.278;2023-06-14T09:14:09;6.13;;;3.90;;
46322;SDS011;32044;52.386;13.278;2023-06-14T09:16:36;9.40;;;4.07;;
46322;SDS011;32044;52.386;13.278;2023-06-14T09:19:04;7.35;;;3.90;;
46322;SDS011;32044;52.386;13.278;2023-06-14T09:21:33;7.70;;;3.95;;
46322;SDS011;32044;52.386;13.278;2023-06-14T09:24:02;7.20;;;3.90;;
46322;SDS011;32044;52.386;13.278;2023-06-14T09:26:32;8.52;;;4.03;;
46322;SDS011;32044;52.386;13.278;2023-06-14T09:28:59;9.30;;;4.43;;
46322;SDS011;32044;52.386;13.278;2023-06-14T09:31:27;8.73;;;3.50;;
46322;SDS011;32044;52.386;13.278;2023-06-14T09:33:58;12.02;;;3.92;;
46322;SDS011;32044;52.386;13.278;2023-06-14T09:36:25;6.35;;;3.75;;
46322;SDS011;32044;52.386;13.278;2023-06-14T09:38:53;7.78;;;3.90;;
46322;SDS011;32044;52.386;13.278;2023-06-14T09:41:29;6.35;;;3.50;;
46322;SDS011;32044;52.386;13.278;2023-06-14T09:44:00;9.90;;;3.72;;
46322;SDS011;32044;52.386;13.278;2023-06-14T09:46:33;10.20;;;3.90;;
46322;SDS011;32044;52.386;13.278;2023-06-14T09:49:02;11.55;;;3.40;;
46322;SDS011;32044;52.386;13.278;2023-06-14T09:51:31;6.25;;;3.60;;
46322;SDS011;32044;52.386;13.278;2023-06-14T09:53:59;8.48;;;3.30;;
46322;SDS011;32044;52.386;13.278;2023-06-14T09:56:32;12.05;;;3.97;;
46322;SDS011;32044;52.386;13.278;2023-06-14T09:59:05;3.88;;;3.47;;
46322;SDS011;32044;52.386;13.278;2023-06-14T10:01:34;4.28;;;3.33;;
46322;SDS011;32044;52.386;13.278;2023-06-14T10:04:03;9.88;;;3.53;;
46322;SDS011;32044;52.386;13.278;2023-06-14T10:06:37;6.07;;;3.70;;
46322;SDS011;32044;52.386;13.278;2023-06-14T10:09:08;6.25;;;3.22;;
46322;SDS011;32044;52.386;13.278;2023-06-14T10:11:38;6.82;;;4.25;;
46322;SDS011;32044;52.386;13.278;2023-06-14T10:14:10;15.00;;;4.30;;
46322;SDS011;32044;52.386;13.278;2023-06-14T10:16:42;7.53;;;3.60;;
46322;SDS011;32044;52.386;13.278;2023-06-14T10:19:13;9.15;;;3.53;;
46322;SDS011;32044;52.386;13.278;2023-06-14T10:21:46;4.22;;;3.47;;
46322;SDS011;32044;52.386;13.278;2023-06-14T10:24:23;14.23;;;4.20;;
46322;SDS011;32044;52.386;13.278;2023-06-14T10:26:57;5.95;;;3.50;;
46322;SDS011;32044;52.386;13.278;2023-06-14T10:29:26;8.98;;;3.50;;
46322;SDS011;32044;52.386;13.278;2023-06-14T10:31:58;10.23;;;4.15;;
46322;SDS011;32044;52.386;13.278;2023-06-14T10:34:28;8.23;;;3.78;;
46322;SDS011;32044;52.386;13.278;2023-06-14T10:37:03;5.47;;;3.85;;
46322;SDS011;32044;52.386;13.278;2023-06-14T10:39:32;8.90;;;3.80;;
46322;SDS011;32044;52.386;13.278;2023-06-14T10:42:01;7.95;;;4.40;;
46322;SDS011;32044;52.386;13.278;2023-06-14T10:44:40;6.97;;;4.05;;
46322;SDS011;32044;52.386;13.278;2023-06-14T10:47:19;12.65;;;4.18;;
46322;SDS011;32044;52.386;13.278;2023-06-14T10:49:50;8.20;;;3.72;;
46322;SDS011;32044;52.386;13.278;2023-06-14T10:52:21;7.35;;;3.88;;
46322;SDS011;32044;52.386;13.278;2023-06-14T10:54:59;6.93;;;3.77;;
46322;SDS011;32044;52.386;13.278;2023-06-14T10:57:30;8.52;;;3.92;;
46322;SDS011;32044;52.386;13.278;2023-06-14T11:00:14;6.03;;;3.50;;
46322;SDS011;32044;52.386;13.278;2023-06-14T11:02:47;7.93;;;3.95;;
46322;SDS011;32044;52.386;13.278;2023-06-14T11:05:23;8.02;;;3.47;;
46322;SDS011;32044;52.386;13.278;2023-06-14T11:07:57;6.07;;;4.03;;
46322;SDS011;32044;52.386;13.278;2023-06-14T11:10:32;14.02;;;4.03;;
46322;SDS011;32044;52.386;13.278;2023-06-14T11:13:05;7.70;;;3.65;;
46322;SDS011;32044;52.386;13.278;2023-06-14T11:15:33;7.35;;;3.70;;
46322;SDS011;32044;52.386;13.278;2023-06-14T11:18:02;7.65;;;3.75;;
46322;SDS011;32044;52.386;13.278;2023-06-14T11:20:31;6.82;;;3.47;;
46322;SDS011;32044;52.386;13.278;2023-06-14T11:22:59;7.28;;;3.97;;
46322;SDS011;32044;52.386;13.278;2023-06-14T11:25:27;8.25;;;3.53;;
46322;SDS011;32044;52.386;13.278;2023-06-14T11:27:55;7.88;;;3.63;;
46322;SDS011;32044;52.386;13.278;2023-06-14T11:30:24;6.60;;;3.42;;
46322;SDS011;32044;52.386;13.278;2023-06-14T11:32:52;7.80;;;3.45;;
46322;SDS011;32044;52.386;13.278;2023-06-14T11:35:24;6.80;;;3.45;;
46322;SDS011;32044;52.386;13.278;2023-06-14T11:37:53;7.03;;;3.40;;
46322;SDS011;32044;52.386;13.278;2023-06-14T11:40:22;11.05;;;3.70;;
46322;SDS011;32044;52.386;13.278;2023-06-14T11:42:57;8.40;;;3.75;;
46322;SDS011;32044;52.386;13.278;2023-06-14T11:45:26;13.88;;;3.70;;
46322;SDS011;32044;52.386;13.278;2023-06-14T11:47:55;7.20;;;3.80;;
46322;SDS011;32044;52.386;13.278;2023-06-14T11:50:24;6.28;;;3.50;;
46322;SDS011;32044;52.386;13.278;2023-06-14T11:52:52;7.35;;;3.78;;
46322;SDS011;32044;52.386;13.278;2023-06-14T11:55:20;5.70;;;3.10;;
46322;SDS011;32044;52.386;13.278;2023-06-14T11:57:48;7.97;;;3.72;;
46322;SDS011;32044;52.386;13.278;2023-06-14T12:00:16;6.80;;;3.60;;
46322;SDS011;32044;52.386;13.278;2023-06-14T12:02:53;5.78;;;3.65;;
46322;SDS011;32044;52.386;13.278;2023-06-14T12:05:22;15.05;;;3.92;;
46322;SDS011;32044;52.386;13.278;2023-06-14T12:07:50;5.30;;;3.25;;
46322;SDS011;32044;52.386;13.278;2023-06-14T12:10:26;8.20;;;3.30;;
46322;SDS011;32044;52.386;13.278;2023-06-14T12:12:56;5.75;;;3.90;;
46322;SDS011;32044;52.386;13.278;2023-06-14T12:15:27;10.23;;;3.75;;
46322;SDS011;32044;52.386;13.278;2023-06-14T12:17:57;8.05;;;3.65;;
46322;SDS011;32044;52.386;13.278;2023-06-14T12:20:28;10.07;;;3.38;;
46322;SDS011;32044;52.386;13.278;2023-06-14T12:22:58;5.20;;;3.13;;
46322;SDS011;32044;52.386;13.278;2023-06-14T12:25:28;7.47;;;3.55;;
46322;SDS011;32044;52.386;13.278;2023-06-14T12:27:58;5.38;;;3.53;;
46322;SDS011;32044;52.386;13.278;2023-06-14T12:30:27;12.82;;;3.55;;
46322;SDS011;32044;52.386;13.278;2023-06-14T12:32:54;9.60;;;3.63;;
46322;SDS011;32044;52.386;13.278;2023-06-14T12:35:24;8.05;;;3.67;;
46322;SDS011;32044;52.386;13.278;2023-06-14T12:37:51;6.68;;;3.15;;
46322;SDS011;32044;52.386;13.278;2023-06-14T12:40:21;6.47;;;3.72;;
46322;SDS011;32044;52.386;13.278;2023-06-14T12:42:49;4.97;;;3.10;;
46322;SDS011;32044;52.386;13.278;2023-06-14T12:45:16;9.18;;;3.30;;
46322;SDS011;32044;52.386;13.278;2023-06-14T12:47:44;8.82;;;3.75;;
46322;SDS011;32044;52.386;13.278;2023-06-14T12:50:12;5.97;;;3.28;;
46322;SDS011;32044;52.386;13.278;2023-06-14T12:52:42;12.10;;;4.03;;
46322;SDS011;32044;52.386;13.278;2023-06-14T12:55:09;7.05;;;3.25;;
46322;SDS011;32044;52.386;13.278;2023-06-14T12:57:37;8.23;;;3.28;;
46322;SDS011;32044;52.386;13.278;2023-06-14T13:00:05;5.43;;;3.30;;
46322;SDS011;32044;52.386;13.278;2023-06-14T13:02:34;8.27;;;3.58;;
46322;SDS011;32044;52.386;13.278;2023-06-14T13:05:01;14.55;;;3.53;;
46322;SDS011;32044;52.386;13.278;2023-06-14T13:07:30;4.90;;;3.30;;
46322;SDS011;32044;52.386;13.278;2023-06-14T13:09:59;8.00;;;3.35;;
46322;SDS011;32044;52.386;13.278;2023-06-14T13:12:27;6.57;;;3.50;;
46322;SDS011;32044;52.386;13.278;2023-06-14T13:14:54;9.18;;;3.78;;
46322;SDS011;32044;52.386;13.278;2023-06-14T13:17:22;8.02;;;3.50;;
46322;SDS011;32044;52.386;13.278;2023-06-14T13:19:50;11.80;;;3.17;;
46322;SDS011;32044;52.386;13.278;2023-06-14T13:22:17;7.95;;;3.40;;
46322;SDS011;32044;52.386;13.278;2023-06-14T13:24:45;5.40;;;3.45;;
46322;SDS011;32044;52.386;13.278;2023-06-14T13:27:14;5.70;;;3.63;;
46322;SDS011;32044;52.386;13.278;2023-06-14T13:29:42;12.43;;;3.60;;
46322;SDS011;32044;52.386;13.278;2023-06-14T13:32:10;14.68;;;3.75;;
46322;SDS011;32044;52.386;13.278;2023-06-14T13:34:37;6.28;;;3.70;;
46322;SDS011;32044;52.386;13.278;2023-06-14T13:37:05;8.18;;;3.28;;
46322;SDS011;32044;52.386;13.278;2023-06-14T13:39:33;8.68;;;3.78;;
46322;SDS011;32044;52.386;13.278;2023-06-14T13:42:03;9.60;;;3.65;;
46322;SDS011;32044;52.386;13.278;2023-06-14T13:44:33;6.75;;;3.47;;
46322;SDS011;32044;52.386;13.278;2023-06-14T13:47:00;4.93;;;3.22;;
46322;SDS011;32044;52.386;13.278;2023-06-14T13:49:28;6.30;;;3.30;;
46322;SDS011;32044;52.386;13.278;2023-06-14T13:51:59;14.43;;;3.45;;
46322;SDS011;32044;52.386;13.278;2023-06-14T13:54:27;7.38;;;4.10;;
46322;SDS011;32044;52.386;13.278;2023-06-14T13:56:55;5.68;;;3.30;;
46322;SDS011;32044;52.386;13.278;2023-06-14T13:59:22;4.18;;;2.88;;
46322;SDS011;32044;52.386;13.278;2023-06-14T14:01:51;7.97;;;3.72;;
46322;SDS011;32044;52.386;13.278;2023-06-14T14:04:19;6.00;;;3.42;;
46322;SDS011;32044;52.386;13.278;2023-06-14T14:06:47;7.53;;;3.28;;
46322;SDS011;32044;52.386;13.278;2023-06-14T14:09:14;6.90;;;3.38;;
46322;SDS011;32044;52.386;13.278;2023-06-14T14:11:42;6.70;;;3.40;;
46322;SDS011;32044;52.386;13.278;2023-06-14T14:14:10;9.73;;;3.80;;
46322;SDS011;32044;52.386;13.278;2023-06-14T14:16:37;7.20;;;3.70;;
46322;SDS011;32044;52.386;13.278;2023-06-14T14:19:06;8.20;;;3.70;;
46322;SDS011;32044;52.386;13.278;2023-06-14T14:21:34;8.48;;;3.40;;
46322;SDS011;32044;52.386;13.278;2023-06-14T14:24:02;6.50;;;3.33;;
46322;SDS011;32044;52.386;13.278;2023-06-14T14:26:30;9.57;;;3.72;;
46322;SDS011;32044;52.386;13.278;2023-06-14T14:28:58;7.20;;;3.47;;
46322;SDS011;32044;52.386;13.278;2023-06-14T14:31:26;8.32;;;3.65;;
46322;SDS011;32044;52.386;13.278;2023-06-14T14:33:53;4.40;;;3.30;;
46322;SDS011;32044;52.386;13.278;2023-06-14T14:36:22;6.55;;;3.35;;
46322;SDS011;32044;52.386;13.278;2023-06-14T14:38:50;6.75;;;3.08;;
46322;SDS011;32044;52.386;13.278;2023-06-14T14:41:18;12.23;;;3.95;;